createdAt,value
2017-05-22T00:00:25.559Z,9.44
2017-05-22T00:02:53.943Z,8.92
2017-05-22T00:05:22.256Z,8.22
2017-05-22T00:07:50.600Z,8.28
2017-05-22T00:10:18.979Z,9.30
2017-05-22T00:12:47.306Z,9.34
2017-05-22T00:15:15.622Z,8.42
2017-05-22T00:17:44.004Z,8.18
2017-05-22T00:20:12.401Z,8.12
2017-05-22T00:22:40.771Z,9.36
2017-05-22T00:25:09.120Z,8.36
2017-05-22T00:27:37.439Z,9.32
2017-05-22T00:30:05.806Z,8.40
2017-05-22T00:32:34.112Z,8.18
2017-05-22T00:35:02.422Z,8.28
2017-05-22T00:37:30.732Z,9.00
2017-05-22T00:39:59.060Z,9.10
2017-05-22T00:42:27.410Z,9.58
2017-05-22T00:44:55.787Z,8.30
2017-05-22T00:47:24.107Z,9.36
2017-05-22T00:49:52.444Z,9.68
2017-05-22T00:52:20.791Z,10.50
2017-05-22T00:54:49.107Z,9.68
2017-05-22T00:57:17.418Z,10.30
2017-05-22T00:59:45.738Z,9.12
2017-05-22T01:02:14.134Z,9.58
2017-05-22T01:04:42.511Z,9.50
2017-05-22T01:07:10.824Z,8.90
2017-05-22T01:09:39.181Z,9.54
2017-05-22T01:12:07.503Z,9.06
2017-05-22T01:14:35.826Z,9.68
2017-05-22T01:17:04.934Z,10.46
2017-05-22T01:19:33.307Z,9.50
2017-05-22T01:22:01.629Z,9.22
2017-05-22T01:24:29.966Z,9.48
2017-05-22T01:26:58.348Z,8.90
2017-05-22T01:29:26.669Z,9.70
2017-05-22T01:31:54.978Z,9.36
2017-05-22T01:34:23.378Z,9.44
2017-05-22T01:36:51.690Z,8.70
2017-05-22T01:39:20.036Z,8.86
2017-05-22T01:41:48.426Z,9.40
2017-05-22T01:44:16.738Z,8.90
2017-05-22T01:46:45.082Z,8.24
2017-05-22T01:49:13.458Z,8.40
2017-05-22T01:51:41.766Z,8.60
2017-05-22T01:54:10.118Z,8.00
2017-05-22T01:56:38.491Z,8.58
2017-05-22T01:59:06.873Z,7.70
2017-05-22T02:01:35.190Z,8.22
2017-05-22T02:04:03.544Z,8.50
2017-05-22T02:06:31.918Z,8.88
2017-05-22T02:09:00.303Z,8.26
2017-05-22T02:11:28.622Z,7.92
2017-05-22T02:13:56.959Z,8.16
2017-05-22T02:16:25.335Z,8.30
2017-05-22T02:18:53.716Z,7.90
2017-05-22T02:21:22.033Z,7.84
2017-05-22T02:23:50.363Z,7.52
2017-05-22T02:26:18.742Z,8.12
2017-05-22T02:28:47.122Z,8.40
2017-05-22T02:31:15.431Z,8.30
2017-05-22T02:33:43.072Z,8.72
2017-05-22T02:36:11.411Z,8.94
2017-05-22T02:38:39.822Z,8.50
2017-05-22T02:41:08.133Z,8.96
2017-05-22T02:43:36.494Z,9.34
2017-05-22T02:46:04.863Z,8.62
2017-05-22T02:48:33.250Z,9.12
2017-05-22T02:51:01.563Z,8.98
2017-05-22T02:53:29.906Z,8.70
2017-05-22T02:55:58.219Z,9.38
2017-05-22T02:58:26.568Z,9.54
2017-05-22T03:00:54.878Z,8.82
2017-05-22T03:03:23.184Z,8.96
2017-05-22T03:05:51.500Z,9.10
2017-05-22T03:08:19.820Z,9.02
2017-05-22T03:10:48.155Z,8.70
2017-05-22T03:13:16.530Z,10.82
2017-05-22T03:15:44.869Z,8.80
2017-05-22T03:18:13.185Z,10.20
2017-05-22T03:20:41.564Z,9.08
2017-05-22T03:23:09.941Z,8.12
2017-05-22T03:25:38.327Z,9.08
2017-05-22T03:28:06.641Z,9.52
2017-05-22T03:30:34.987Z,9.28
2017-05-22T03:33:03.299Z,9.40
2017-05-22T03:35:32.374Z,10.36
2017-05-22T03:38:00.750Z,10.38
2017-05-22T03:40:29.123Z,10.08
2017-05-22T03:42:57.470Z,10.72
2017-05-22T03:51:13.705Z,9.36
2017-05-22T03:53:42.123Z,9.76
2017-05-22T03:56:10.502Z,8.94
2017-05-22T03:58:38.835Z,9.80
2017-05-22T04:01:07.264Z,9.34
2017-05-22T04:03:35.648Z,9.04
2017-05-22T04:06:03.961Z,8.40
2017-05-22T04:08:32.305Z,8.98
2017-05-22T04:11:00.680Z,9.40
2017-05-22T04:13:29.063Z,9.58
2017-05-22T04:15:57.443Z,9.08
2017-05-22T04:18:25.818Z,8.72
2017-05-22T04:20:54.139Z,8.82
2017-05-22T04:23:22.471Z,7.80
2017-05-22T04:25:50.810Z,8.78
2017-05-22T04:28:19.122Z,8.94
2017-05-22T04:30:47.462Z,8.88
2017-05-22T04:33:15.779Z,8.60
2017-05-22T04:35:44.176Z,9.64
2017-05-22T04:38:12.494Z,9.20
2017-05-22T04:40:40.855Z,10.62
2017-05-22T04:43:09.183Z,9.52
2017-05-22T04:45:37.519Z,16.30
2017-05-22T04:48:05.862Z,9.60
2017-05-22T04:59:15.227Z,9.34
2017-05-22T05:01:43.644Z,10.46
2017-05-22T05:04:11.962Z,11.70
2017-05-22T05:06:40.286Z,10.02
2017-05-22T05:09:08.682Z,10.32
2017-05-22T05:11:37.076Z,9.72
2017-05-22T05:14:05.455Z,11.16
2017-05-22T05:16:33.778Z,9.54
2017-05-22T05:19:02.198Z,9.90
2017-05-22T05:21:30.518Z,8.68
2017-05-22T05:23:58.962Z,8.62
2017-05-22T05:26:27.281Z,7.64
2017-05-22T05:28:55.624Z,8.68
2017-05-22T05:31:23.939Z,8.72
2017-05-22T05:33:52.282Z,8.00
2017-05-22T05:36:20.600Z,8.58
2017-05-22T05:38:48.947Z,8.48
2017-05-22T05:41:17.723Z,9.28
2017-05-22T05:43:46.034Z,8.96
2017-05-22T05:46:14.379Z,8.58
2017-05-22T05:48:42.758Z,8.86
2017-05-22T05:51:11.098Z,9.00
2017-05-22T05:53:39.412Z,9.80
2017-05-22T05:56:07.744Z,9.20
2017-05-22T05:58:36.057Z,9.04
2017-05-22T06:01:04.466Z,9.74
2017-05-22T06:03:32.838Z,9.20
2017-05-22T06:06:01.219Z,8.68
2017-05-22T06:08:29.570Z,8.34
2017-05-22T06:10:57.910Z,8.52
2017-05-22T06:13:26.250Z,7.92
2017-05-22T06:15:54.627Z,8.66
2017-05-22T06:18:22.966Z,8.10
2017-05-22T06:20:51.297Z,7.86
2017-05-22T06:23:19.599Z,7.60
2017-05-22T06:25:47.951Z,7.38
2017-05-22T06:28:16.329Z,6.70
2017-05-22T06:30:44.714Z,7.88
2017-05-22T06:33:13.092Z,6.94
2017-05-22T06:35:41.470Z,6.68
2017-05-22T06:38:09.774Z,6.62
2017-05-22T06:40:38.123Z,7.22
2017-05-22T06:43:06.511Z,7.36
2017-05-22T06:45:34.890Z,6.30
2017-05-22T06:48:03.216Z,7.78
2017-05-22T06:50:31.554Z,5.64
2017-05-22T06:52:59.899Z,5.50
2017-05-22T06:55:28.211Z,6.20
2017-05-22T06:57:56.546Z,5.70
2017-05-22T07:00:24.971Z,5.98
2017-05-22T07:02:53.322Z,4.80
2017-05-22T07:05:21.631Z,5.78
2017-05-22T07:07:49.994Z,5.68
2017-05-22T07:10:18.321Z,5.94
2017-05-22T07:12:46.651Z,5.60
2017-05-22T07:15:15.431Z,6.42
2017-05-22T07:17:43.824Z,4.40
2017-05-22T07:20:12.202Z,4.58
2017-05-22T07:22:40.583Z,5.66
2017-05-22T07:25:08.983Z,5.20
2017-05-22T07:27:37.304Z,4.90
2017-05-22T07:30:05.646Z,4.72
2017-05-22T07:32:34.007Z,4.94
2017-05-22T07:35:02.326Z,5.04
2017-05-22T07:37:30.634Z,5.28
2017-05-22T07:39:58.953Z,4.38
2017-05-22T07:42:27.287Z,4.60
2017-05-22T07:44:55.599Z,4.74
2017-05-22T07:47:23.978Z,4.06
2017-05-22T07:49:52.365Z,4.40
2017-05-22T07:52:20.703Z,4.16
2017-05-22T07:54:49.111Z,4.20
2017-05-22T07:57:17.423Z,4.32
2017-05-22T07:59:45.731Z,4.58
2017-05-22T08:02:14.059Z,4.38
2017-05-22T08:04:42.371Z,4.84
2017-05-22T08:07:10.697Z,4.26
2017-05-22T08:09:39.087Z,4.34
2017-05-22T08:12:07.393Z,4.12
2017-05-22T08:14:35.702Z,3.82
2017-05-22T08:17:04.610Z,4.66
2017-05-22T08:19:32.924Z,4.44
2017-05-22T08:22:01.235Z,3.96
2017-05-22T08:24:29.578Z,3.40
2017-05-22T08:26:57.953Z,3.90
2017-05-22T08:29:26.334Z,3.56
2017-05-22T08:31:54.646Z,3.22
2017-05-22T08:34:22.266Z,3.40
2017-05-22T08:36:50.655Z,3.30
2017-05-22T08:39:19.033Z,3.16
2017-05-22T08:41:47.402Z,3.10
2017-05-22T08:44:15.718Z,3.10
2017-05-22T08:46:44.073Z,3.48
2017-05-22T08:49:12.451Z,3.08
2017-05-22T08:51:40.829Z,2.70
2017-05-22T08:54:09.212Z,3.02
2017-05-22T08:56:37.515Z,3.16
2017-05-22T08:59:05.820Z,2.66
2017-05-22T09:01:34.142Z,3.06
2017-05-22T09:04:02.456Z,3.40
2017-05-22T09:06:30.815Z,3.36
2017-05-22T09:08:59.195Z,3.10
2017-05-22T09:11:27.539Z,2.78
2017-05-22T09:13:55.846Z,3.00
2017-05-22T09:16:24.163Z,3.20
2017-05-22T09:18:52.483Z,2.74
2017-05-22T09:21:20.810Z,3.30
2017-05-22T09:23:49.118Z,3.00
2017-05-22T09:26:17.430Z,3.28
2017-05-22T09:28:45.748Z,2.74
2017-05-22T09:31:14.066Z,2.76
2017-05-22T09:33:42.407Z,2.96
2017-05-22T09:36:10.723Z,3.00
2017-05-22T09:38:39.042Z,3.12
2017-05-22T09:41:07.394Z,2.98
2017-05-22T09:43:35.712Z,2.90
2017-05-22T09:46:04.058Z,2.50
2017-05-22T09:48:32.371Z,3.12
2017-05-22T09:51:00.726Z,2.74
2017-05-22T09:53:29.038Z,2.94
2017-05-22T09:55:57.393Z,2.88
2017-05-22T09:58:25.759Z,3.02
2017-05-22T10:00:54.112Z,2.86
2017-05-22T10:03:22.426Z,3.10
2017-05-22T10:05:50.802Z,3.12
2017-05-22T10:08:19.180Z,2.80
2017-05-22T10:10:47.556Z,3.42
2017-05-22T10:13:15.880Z,3.32
2017-05-22T10:15:44.191Z,3.32
2017-05-22T10:18:12.592Z,3.26
2017-05-22T10:20:40.909Z,3.32
2017-05-22T10:23:09.219Z,3.58
2017-05-22T10:25:37.536Z,3.78
2017-05-22T10:28:05.846Z,3.58
2017-05-22T10:30:34.191Z,3.48
2017-05-22T10:33:02.498Z,3.00
2017-05-22T10:35:30.830Z,3.08
2017-05-22T10:37:59.145Z,3.20
2017-05-22T10:40:27.511Z,3.34
2017-05-22T10:42:55.822Z,3.56
2017-05-22T10:45:24.128Z,3.50
2017-05-22T10:47:52.436Z,3.30
2017-05-22T10:50:20.905Z,3.40
2017-05-22T10:52:49.214Z,3.44
2017-05-22T10:55:17.592Z,4.42
2017-05-22T10:57:45.954Z,4.92
2017-05-22T11:00:14.270Z,4.08
2017-05-22T11:02:42.610Z,4.88
2017-05-22T11:05:10.923Z,3.40
2017-05-22T11:07:39.293Z,2.90
2017-05-22T11:10:07.656Z,3.60
2017-05-22T11:12:36.038Z,3.32
2017-05-22T11:15:04.412Z,3.10
2017-05-22T11:17:32.710Z,3.68
2017-05-22T11:20:01.074Z,3.18
2017-05-22T11:22:29.448Z,3.40
2017-05-22T11:24:57.950Z,3.62
2017-05-22T11:27:26.328Z,3.62
2017-05-22T11:29:54.687Z,3.68
2017-05-22T11:32:23.082Z,3.44
2017-05-22T11:34:51.460Z,3.52
2017-05-22T11:37:19.770Z,3.58
2017-05-22T11:39:48.091Z,3.32
2017-05-22T11:42:16.489Z,3.38
2017-05-22T11:44:44.862Z,3.42
2017-05-22T11:47:13.189Z,3.58
2017-05-22T11:49:41.511Z,4.08
2017-05-22T11:52:09.847Z,3.78
2017-05-22T11:54:38.186Z,4.06
2017-05-22T11:57:06.490Z,2.98
2017-05-22T11:59:34.807Z,4.50
2017-05-22T12:02:03.222Z,4.18
2017-05-22T12:04:31.533Z,3.90
2017-05-22T12:06:59.843Z,4.60
2017-05-22T12:09:28.259Z,3.56
2017-05-22T12:11:56.570Z,4.14
2017-05-22T12:14:24.902Z,4.62
2017-05-22T12:16:53.214Z,3.82
2017-05-22T12:19:21.587Z,3.90
2017-05-22T12:21:49.956Z,4.30
2017-05-22T12:24:18.272Z,3.36
2017-05-22T12:26:46.583Z,3.66
2017-05-22T12:29:15.002Z,4.42
2017-05-22T12:31:43.375Z,3.96
2017-05-22T12:34:11.696Z,3.94
2017-05-22T12:36:40.126Z,3.68
2017-05-22T12:39:08.439Z,3.70
2017-05-22T12:41:36.751Z,4.16
2017-05-22T12:44:05.058Z,3.94
2017-05-22T12:46:33.367Z,4.64
2017-05-22T12:49:01.674Z,4.00
2017-05-22T12:51:29.978Z,3.32
2017-05-22T12:53:58.315Z,3.62
2017-05-22T12:56:26.670Z,3.34
2017-05-22T12:58:55.012Z,3.32
2017-05-22T13:01:23.326Z,4.60
2017-05-22T13:03:51.646Z,4.34
2017-05-22T13:06:19.980Z,3.72
2017-05-22T13:08:48.286Z,3.66
2017-05-22T13:11:16.594Z,3.84
2017-05-22T13:13:44.914Z,3.52
2017-05-22T13:16:13.246Z,3.60
2017-05-22T13:18:41.570Z,3.48
2017-05-22T13:21:09.917Z,3.14
2017-05-22T13:23:38.341Z,3.36
2017-05-22T13:26:06.712Z,3.82
2017-05-22T13:28:35.018Z,3.58
2017-05-22T13:31:03.334Z,3.36
2017-05-22T13:33:31.750Z,3.30
2017-05-22T13:36:00.131Z,3.74
2017-05-22T13:38:28.512Z,3.20
2017-05-22T13:40:56.831Z,3.14
2017-05-22T13:43:25.167Z,3.30
2017-05-22T13:45:53.471Z,3.42
2017-05-22T13:48:21.812Z,3.40
2017-05-22T13:50:50.114Z,3.14
2017-05-22T13:53:18.487Z,3.64
2017-05-22T13:55:46.868Z,3.14
2017-05-22T13:58:15.182Z,3.76
2017-05-22T14:00:43.519Z,3.60
2017-05-22T14:03:11.861Z,3.34
2017-05-22T14:05:40.214Z,3.70
2017-05-22T14:08:08.547Z,3.14
2017-05-22T14:10:36.929Z,5.56
2017-05-22T14:13:05.301Z,3.96
2017-05-22T14:15:33.694Z,3.66
2017-05-22T14:18:02.003Z,3.80
2017-05-22T14:20:30.320Z,3.26
2017-05-22T14:22:58.651Z,3.32
2017-05-22T14:25:27.011Z,3.60
2017-05-22T14:27:55.347Z,3.22
2017-05-22T14:30:23.686Z,3.72
2017-05-22T14:32:52.028Z,3.64
2017-05-22T14:35:20.350Z,3.40
2017-05-22T14:37:48.698Z,3.30
2017-05-22T14:40:17.002Z,3.30
2017-05-22T14:42:45.313Z,3.06
2017-05-22T14:45:13.615Z,3.24
2017-05-22T14:47:42.022Z,3.44
2017-05-22T14:50:10.363Z,3.42
2017-05-22T14:52:38.678Z,3.60
2017-05-22T14:55:07.027Z,3.04
2017-05-22T14:57:35.335Z,2.94
2017-05-22T15:00:03.679Z,3.44
2017-05-22T15:02:32.098Z,3.18
2017-05-22T15:05:00.435Z,3.44
2017-05-22T15:07:28.742Z,2.70
2017-05-22T15:09:57.123Z,3.50
2017-05-22T15:12:25.516Z,3.50
2017-05-22T15:14:53.828Z,3.82
2017-05-22T15:17:22.162Z,8.72
2017-05-22T15:19:50.535Z,6.40
2017-05-22T15:22:18.852Z,8.80
2017-05-22T15:24:47.198Z,6.60
2017-05-22T15:27:15.583Z,4.40
2017-05-22T15:29:43.893Z,3.04
2017-05-22T15:32:12.339Z,3.78
2017-05-22T15:34:40.645Z,4.00
2017-05-22T15:37:08.949Z,3.56
2017-05-22T15:39:37.260Z,3.46
2017-05-22T15:42:05.568Z,3.50
2017-05-22T15:44:33.875Z,3.70
2017-05-22T15:47:02.188Z,3.32
2017-05-22T15:49:30.497Z,3.62
2017-05-22T15:51:58.806Z,4.02
2017-05-22T15:54:27.242Z,3.62
2017-05-22T15:56:55.550Z,3.20
2017-05-22T15:59:23.908Z,3.34
2017-05-22T16:01:52.290Z,3.60
2017-05-22T16:04:20.590Z,3.34
2017-05-22T16:06:48.909Z,3.66
2017-05-22T16:09:17.231Z,3.92
2017-05-22T16:11:45.610Z,3.42
2017-05-22T16:14:13.978Z,3.50
2017-05-22T16:16:42.372Z,4.16
2017-05-22T16:19:10.758Z,4.92
2017-05-22T16:21:39.071Z,4.20
2017-05-22T16:24:07.402Z,3.86
2017-05-22T16:26:35.787Z,3.30
2017-05-22T16:29:04.098Z,4.12
2017-05-22T16:31:32.442Z,5.20
2017-05-22T16:34:00.822Z,3.54
2017-05-22T16:36:29.140Z,3.82
2017-05-22T16:38:57.479Z,4.08
2017-05-22T16:41:25.786Z,3.46
2017-05-22T16:43:54.143Z,4.16
2017-05-22T16:46:22.467Z,3.28
2017-05-22T16:48:50.778Z,3.46
2017-05-22T16:51:19.099Z,3.50
2017-05-22T16:53:47.406Z,3.26
2017-05-22T16:56:15.710Z,3.86
2017-05-22T16:58:44.025Z,3.14
2017-05-22T17:01:12.339Z,3.88
2017-05-22T17:03:40.642Z,3.70
2017-05-22T17:06:09.006Z,3.84
2017-05-22T17:08:37.302Z,3.52
2017-05-22T17:11:05.647Z,3.76
2017-05-22T17:13:33.956Z,3.94
2017-05-22T17:16:02.271Z,3.92
2017-05-22T17:18:30.638Z,4.10
2017-05-22T17:20:58.959Z,4.32
2017-05-22T17:23:27.297Z,3.28
2017-05-22T17:25:55.679Z,3.98
2017-05-22T17:28:24.049Z,3.70
2017-05-22T17:30:52.427Z,4.22
2017-05-22T17:33:20.806Z,5.18
2017-05-22T17:35:49.187Z,8.34
2017-05-22T17:38:17.571Z,5.82
2017-05-22T17:40:46.010Z,4.68
2017-05-22T17:43:14.314Z,3.24
2017-05-22T17:45:42.799Z,3.90
2017-05-22T17:48:11.194Z,3.40
2017-05-22T17:50:39.571Z,3.66
2017-05-22T17:53:07.877Z,3.84
2017-05-22T17:55:36.207Z,3.56
2017-05-22T17:58:04.516Z,3.90
2017-05-22T18:00:32.891Z,3.72
2017-05-22T18:03:01.204Z,3.88
2017-05-22T18:05:29.652Z,3.46
2017-05-22T18:07:57.963Z,3.62
2017-05-22T18:10:25.502Z,3.78
2017-05-22T18:12:53.834Z,3.84
2017-05-22T18:15:22.252Z,3.76
2017-05-22T18:17:50.592Z,3.90
2017-05-22T18:20:19.012Z,3.82
2017-05-22T18:22:47.386Z,4.12
2017-05-22T18:25:15.690Z,4.10
2017-05-22T18:27:44.044Z,3.96
2017-05-22T18:30:12.427Z,3.98
2017-05-22T18:32:40.734Z,4.12
2017-05-22T18:35:09.039Z,4.60
2017-05-22T18:37:37.354Z,4.60
2017-05-22T18:40:05.687Z,3.56
2017-05-22T18:42:34.027Z,3.48
2017-05-22T18:45:02.368Z,3.88
2017-05-22T18:47:30.686Z,3.92
2017-05-22T18:49:59.047Z,3.50
2017-05-22T18:52:27.431Z,4.14
2017-05-22T18:54:55.784Z,3.82
2017-05-22T18:57:24.087Z,4.26
2017-05-22T18:59:52.475Z,4.22
2017-05-22T19:02:20.795Z,3.90
2017-05-22T19:04:49.102Z,3.74
2017-05-22T19:07:17.406Z,3.90
2017-05-22T19:09:45.706Z,4.10
2017-05-22T19:12:14.318Z,4.72
2017-05-22T19:14:42.629Z,4.06
2017-05-22T19:17:10.972Z,4.36
2017-05-22T19:19:39.284Z,4.54
2017-05-22T19:22:07.614Z,4.54
2017-05-22T19:24:35.924Z,5.24
2017-05-22T19:27:04.234Z,4.94
2017-05-22T19:29:32.578Z,4.48
2017-05-22T19:32:00.899Z,5.38
2017-05-22T19:34:29.228Z,4.42
2017-05-22T19:36:57.553Z,4.48
2017-05-22T19:39:25.917Z,4.50
2017-05-22T19:41:54.222Z,4.14
2017-05-22T19:44:22.558Z,4.82
2017-05-22T19:46:50.944Z,4.54
2017-05-22T19:49:19.283Z,4.00
2017-05-22T19:51:47.598Z,4.68
2017-05-22T19:54:15.908Z,4.40
2017-05-22T19:56:44.310Z,4.76
2017-05-22T19:59:12.626Z,4.38
2017-05-22T20:01:40.951Z,5.02
2017-05-22T20:04:09.259Z,4.10
2017-05-22T20:06:37.710Z,4.70
2017-05-22T20:09:06.015Z,4.78
2017-05-22T20:11:34.336Z,5.24
2017-05-22T20:14:02.669Z,4.66
2017-05-22T20:16:30.971Z,4.84
2017-05-22T20:18:59.308Z,5.04
2017-05-22T20:21:27.622Z,4.98
2017-05-22T20:23:56.068Z,4.32
2017-05-22T20:26:24.375Z,4.46
2017-05-22T20:28:52.715Z,4.70
2017-05-22T20:31:21.028Z,4.88
2017-05-22T20:33:49.347Z,5.46
2017-05-22T20:36:17.666Z,5.50
2017-05-22T20:38:45.972Z,5.96
2017-05-22T20:41:14.317Z,6.26
2017-05-22T20:43:42.695Z,5.06
2017-05-22T20:46:11.038Z,5.92
2017-05-22T20:48:39.351Z,5.36
2017-05-22T20:51:07.692Z,4.94
2017-05-22T20:53:36.005Z,5.04
2017-05-22T20:56:04.383Z,5.04
2017-05-22T20:58:32.687Z,5.82
2017-05-22T21:01:01.047Z,5.80
2017-05-22T21:03:29.369Z,5.28
2017-05-22T21:05:57.690Z,5.98
2017-05-22T21:08:26.041Z,5.36
2017-05-22T21:10:54.462Z,5.18
2017-05-22T21:13:22.856Z,5.56
2017-05-22T21:15:51.170Z,5.18
2017-05-22T21:18:19.519Z,5.70
2017-05-22T21:20:47.824Z,5.56
2017-05-22T21:23:16.158Z,5.16
2017-05-22T21:25:44.474Z,5.88
2017-05-22T21:28:12.815Z,5.68
2017-05-22T21:30:41.190Z,5.20
2017-05-22T21:33:09.531Z,5.00
2017-05-22T21:35:37.863Z,5.28
2017-05-22T21:38:06.180Z,5.48
2017-05-22T21:40:34.543Z,5.66
2017-05-22T21:43:02.850Z,6.52
2017-05-22T21:45:31.266Z,6.10
2017-05-22T21:47:59.654Z,5.70
2017-05-22T21:50:27.967Z,5.78
2017-05-22T21:52:56.413Z,5.66
2017-05-22T21:55:24.730Z,6.64
2017-05-22T21:57:53.173Z,5.62
2017-05-22T22:00:21.494Z,6.76
2017-05-22T22:02:49.836Z,6.04
2017-05-22T22:05:18.211Z,6.68
2017-05-22T22:07:46.596Z,6.26
2017-05-22T22:10:14.905Z,6.40
2017-05-22T22:12:43.216Z,6.96
2017-05-22T22:15:11.519Z,5.78
2017-05-22T22:17:39.863Z,6.52
2017-05-22T22:20:08.200Z,6.20
2017-05-22T22:22:36.544Z,6.08
2017-05-22T22:25:04.935Z,5.74
2017-05-22T22:27:33.314Z,5.60
2017-05-22T22:30:01.698Z,5.78
2017-05-22T22:32:30.096Z,5.72
2017-05-22T22:34:58.440Z,6.08
2017-05-22T22:37:26.762Z,5.54
2017-05-22T22:39:55.136Z,5.76
2017-05-22T22:42:23.502Z,5.80
2017-05-22T22:44:51.814Z,6.02
2017-05-22T22:47:20.130Z,6.52
2017-05-22T22:49:48.550Z,6.60
2017-05-22T22:52:16.861Z,5.88
2017-05-22T22:54:45.167Z,6.18
2017-05-22T22:57:13.575Z,5.62
2017-05-22T22:59:41.882Z,5.78
2017-05-22T23:02:10.232Z,5.38
2017-05-22T23:04:38.538Z,5.60
2017-05-22T23:07:06.842Z,5.72
2017-05-22T23:09:35.155Z,6.20
2017-05-22T23:12:03.466Z,6.28
2017-05-22T23:14:31.820Z,6.88
2017-05-22T23:17:00.203Z,5.70
2017-05-22T23:19:28.510Z,5.50
2017-05-22T23:21:56.820Z,5.90
2017-05-22T23:24:25.156Z,6.20
2017-05-22T23:26:53.471Z,5.42
2017-05-22T23:29:21.779Z,5.64
2017-05-22T23:31:50.179Z,5.66
2017-05-22T23:34:18.498Z,5.72
2017-05-22T23:36:46.818Z,5.86
2017-05-22T23:39:15.210Z,7.52
2017-05-22T23:41:43.594Z,6.20
2017-05-22T23:44:11.975Z,6.72
2017-05-22T23:46:40.291Z,6.30
2017-05-22T23:49:25.215Z,6.08
2017-05-22T23:51:53.602Z,6.28
2017-05-22T23:54:21.985Z,6.60
2017-05-22T23:56:50.307Z,6.50
2017-05-22T23:59:18.610Z,5.92
